KGNB

Granby-Grand County Airport

Granby, Colorado, USA
METAR KGNB 230050Z AUTO 10006KT 10SM OVC085 10/M01 A3031 RMK AO2 T00981010
Observed Flight Rules
Oct-23 @ 00:50 UTC (12 minutes ago) Visual Flight Rules
Wind Visibility Clouds
100° at 6 knots 10 miles
  • Overcast at 8,500' AGL
Temperatures Readings
Current 10°C / 50°F
Dewpoint -1°C / 30°F
Humidity 47%
Altimeter 30.31" Hg
Pressure 1026 hPa
Elevation 2500
METAR KGNB 230050Z AUTO 10006KT 10SM OVC085 10/M01 A3031 RMK AO2 T00981010
Observed Flight Rules
Oct-23 @ 00:50 UTC
(12 minutes ago)
VFR
Wind Visibility
100° at 6 knots 10 miles
Clouds
  • Overcast at 8,500' AGL
Temperature Dewpoint
10°C / 50°F -1°C / 30°F
Humidity Altimeter Pressure
47% 30.31" Hg 1026 hPa